AirNav   Phillips 66 Aviation Fuel
 
 475 users online  

6MN9 Benson Airport
White Bear Township, Minnesota, USA

GOING TO WHITE BEAR TOWNSHIP?


FAA INFORMATION EFFECTIVE 29 MARCH 2018

Location

FAA Identifier: 6MN9
Lat/Long: 45-06-59.8800N / 092-59-45.7820W
45-06.998000N / 092-59.763033W
45.1166333 / -92.9960506
(estimated)
Elevation: 942 ft. / 287 m (estimated)
Variation: 03E (1985)
From city: 3 miles N of WHITE BEAR TOWNSHIP, MN
Time zone: UTC -5 (UTC -6 during Standard Time)
Zip code: 55110

Airport Operations

Airport use: Private use. Permission required prior to landing
Activation date: 08/1945
Control tower: no
ARTCC: MINNEAPOLIS CENTER
FSS: PRINCETON FLIGHT SERVICE STATION
Attendance: 0900-DUSK
NO GLIDER ACTIVITY
Pattern altitude: 1742 ft. MSL
Wind indicator: yes
Segmented circle: no
Lights: FOR LIRL RWY 12/30 CALL 651-429-0315.
Beacon: white-green (lighted land airport)
FOR ROTG BCN CALL 651-429-0315.

Airport Communications

UNICOM: 122.7
WX AWOS-3 at ANE (9 nm W): PHONE 763-780-9025
WX AWOS-3 at 21D (9 nm SE): 120.075 (651-779-5949)
WX ASOS at STP (11 nm S): PHONE 651-298-1410
WX ASOS at MIC (16 nm W): PHONE 763-531-2343
WX AWOS-3 at SGS (16 nm S): 119.425 (651-457-8120)
WX ASOS at MSP (17 nm SW): PHONE 612-713-4174
WX AWOS-3 at OEO (17 nm NE): 119.925 (715-294-3845)
WX AWOS-3 at RNH (19 nm E): 120.0 (715-246-3202)

Nearby radio navigation aids

VOR radial/distance  VOR name  Freq  Var
GEPr090/16.1GOPHER VORTAC117.3006E
MSPr036/16.7MINNEAPOLIS VOR/DME115.3002E
FCMr046/25.8FLYING CLOUD VOR/DME117.7001E
FGTr009/30.2FARMINGTON VORTAC115.7006E

 
NDB name  Hdg/Dist  Freq  Var  ID
HOPEY348/14.840003EPPI .--. .--. ..
CAMBRIDGE156/28.735001ECBG -.-. -... --.
RUSH CITY181/34.928202EROS .-. --- ...
PRINCETON133/37.336803EPNM .--. -. --

Airport Services

Fuel available: 100LL
Parking: hangars
Airframe service: MAJOR
Bottled oxygen: NONE
Bulk oxygen: NONE

Runway Information

Runway 12/30

Dimensions: 2000 x 75 ft. / 610 x 23 m
Surface: turf
Runway edge lights: NO LIGHTS, NO NIGHT OPERATIONS
RUNWAY 12  RUNWAY 30
Traffic pattern: leftleft
Obstructions: tree, 600 ft. from runway, 16:1 slope to cleartrees, 70 ft. from runway, 1:1 slope to clear

Airport Ownership and Management from official FAA records

Ownership: Privately-owned
Owner: WHITE BEAR TOWNSHIP
1281 HAMMOND RD
WHITE BEAR TOWNSHIP, MN 55110
Phone 651-747-2750
Manager: WILLIAM F. SHORT
1281 HAMMOND RD
WHITE BEAR TOWNSHIP, MN 55110
Phone 651-747-2750

Airport Operational Statistics

Aircraft based on the field: 25
Single engine airplanes: 25
    
Aircraft operations: avg 88/week
78% local general aviation
22% transient general aviation

Instrument Procedures

There are no published instrument procedures at 6MN9.

Some nearby airports with instrument procedures:

KANE - Anoka County-Blaine Airport (Janes Field) (9 nm W)
21D - Lake Elmo Airport (9 nm SE)
KSTP - St. Paul Downtown Airport / Holman Field (11 nm S)
KMIC - Crystal Airport (16 nm W)
KSGS - South St Paul Municipal Airport-Richard E Fleming Field (16 nm S)
KMSP - Minneapolis-St Paul International/Wold-Chamberlain Airport (17 nm SW)
KOEO - L O Simenstad Municipal Airport (17 nm NE)
KRNH - New Richmond Regional Airport (19 nm E)
 
Loc | Ops | Rwys | IFR | FBO | Links
Com | Nav | Svcs | Stats | Notes

AirNav Hotels Sweepstakes
 
Area around 6MN9 (Benson Airport)
 
Road maps at: MapQuest Bing Google
 
Aerial photo
WARNING: Photo may not be current or correct
Aerial photo of 6MN9 (Benson Airport)
Do you have a better or more recent aerial photo of Benson Airport that you would like to share? If so, please send us your photo.

 
Sectional chart

 
Airport distance calculator
Flying to Benson Airport? Find the distance to fly.

From to 6MN9

Sunrise and sunset
Times for 25-Apr-2018
 Local
(UTC-5)
 Zulu
(UTC)
Morning civil twilight05:3910:39
Sunrise06:1111:11
Sunset20:0901:09
Evening civil twilight20:4101:41

Current date and time
Zulu (UTC)  25-Apr-2018 08:30:49
Local (UTC-5)  25-Apr-2018 03:30:49
 
METAR
K21D 
9nm SE 
250815Z AUTO 00000KT 10SM CLR 03/M02 A3025 RMK AO2
KANE 
9nm W 
250815Z AUTO 01007KT 10SM CLR 03/M03 A3025 RMK AO2
KSTP 
11nm S 
250753Z AUTO 35006KT 10SM CLR 04/M03 A3026 RMK AO2 SLP247 T00441033 $
KMIC 
15nm W 
250753Z AUTO 02007KT 10SM CLR 04/M04 A3025 RMK AO2 SLP247 T00391039
KOEO 
17nm NE 
250815Z AUTO 02006KT 10SM CLR 03/M04 A3028 RMK AO2 T00251038
KMSP 
17nm SW 
250753Z 01009KT 10SM CLR 05/M03 A3025 RMK AO2 SLP246 T00501028
KSGS 
17nm S 
250815Z AUTO 36004KT 10SM CLR 05/M03 A3024 RMK AO2 T00481033
KRNH 
20nm E 
250815Z AUTO 01006KT 10SM CLR 02/M04 A3024 RMK AO2 T00201039
TAF
KMSP 
17nm SW 
250520Z 2506/2612 35006KT P6SM SKC FM252100 26007KT P6SM SKC FM260300 20005KT P6SM SKC
KRNH 
20nm E 
250520Z 2506/2606 35005KT P6SM SKC FM252100 26005KT P6SM SKC
NOTAMs
Click for the latest NOTAMs
NOTAMs are issued by the DoD/FAA and will open in a separate window not controlled by AirNav.

 

 
 

Would you like to see your business listed on this page?

 If your business provides an interesting product or service to pilots, flight crews, aircraft, or users of the Benson Airport, you should consider listing it here.  To start the listing process, click on the button below
 
Add a business
 

Other Pages about Benson Airport

Update a link
 
Copyright © AirNav, LLC. All rights reserved. Privacy Policy  Contact